Time;durP1;ratioP1;P1;durP2;ratioP2;P2;SDS_P1;SDS_P2;PMS_P1;PMS_P2;Temp;Humidity;BMP_temperature;BMP_pressure;BME280_temperature;BME280_humidity;BME280_pressure;Samples;Min_cycle;Max_cycle;Signal;HPM_P1;HPM_P2
2021/08/06 00:00:22;;;;;;;5.75;1.60;;;;;;;19.01;73.81;97647.25;4952414;28;20042;-65
2021/08/06 00:02:47;;;;;;;7.30;1.40;;;;;;;18.92;75.30;97646.75;4972819;28;20051;-65
2021/08/06 00:05:13;;;;;;;9.65;1.65;;;;;;;18.97;74.89;97654.78;4979683;28;20038;-64
2021/08/06 00:07:38;;;;;;;5.82;1.55;;;;;;;18.99;74.71;97652.72;4976734;28;20026;-60
2021/08/06 00:10:05;;;;;;;5.63;1.50;;;;;;;18.93;74.94;97660.72;4973294;28;20076;-65
2021/08/06 00:12:30;;;;;;;5.28;1.58;;;;;;;18.67;75.34;97624.94;4977494;28;20315;-63
2021/08/06 00:14:55;;;;;;;4.47;1.50;;;;;;;18.73;75.31;97619.59;4992869;28;20523;-63
2021/08/06 00:17:21;;;;;;;5.00;1.40;;;;;;;18.95;75.41;97654.22;4981655;28;20101;-62
2021/08/06 00:19:46;;;;;;;5.50;1.50;;;;;;;19.02;75.21;97656.78;4971877;28;20057;-63
2021/08/06 00:22:12;;;;;;;7.10;1.50;;;;;;;18.59;75.15;97605.00;4978880;28;20036;-61
2021/08/06 00:24:37;;;;;;;3.53;1.30;;;;;;;18.98;74.94;97660.84;4974210;28;20042;-66
2021/08/06 00:27:03;;;;;;;5.00;1.55;;;;;;;18.94;74.82;97657.84;4981888;28;20026;-65
2021/08/06 00:29:28;;;;;;;3.85;1.27;;;;;;;18.96;75.37;97663.69;4991054;28;20112;-63
2021/08/06 00:31:53;;;;;;;4.22;1.50;;;;;;;18.92;75.30;97656.47;4971986;28;20038;-64
2021/08/06 00:34:19;;;;;;;4.70;1.48;;;;;;;18.89;75.32;97651.66;4975742;28;20144;-65
2021/08/06 00:36:44;;;;;;;6.30;1.50;;;;;;;18.82;75.53;97649.13;4972046;28;20097;-61
2021/08/06 00:39:09;;;;;;;4.30;1.33;;;;;;;18.87;75.38;97656.34;4980267;28;20041;-65
2021/08/06 00:41:35;;;;;;;8.55;1.30;;;;;;;18.88;75.72;97655.31;4974979;28;20037;-64
2021/08/06 00:44:01;;;;;;;5.63;1.50;;;;;;;18.79;75.77;97660.84;4978541;28;20390;-61
2021/08/06 00:46:26;;;;;;;4.70;1.42;;;;;;;18.50;75.66;97611.56;4977376;28;20018;-62
2021/08/06 00:48:52;;;;;;;4.40;1.50;;;;;;;18.79;75.78;97655.59;4978567;28;20471;-66
2021/08/06 00:51:17;;;;;;;5.50;1.48;;;;;;;18.76;75.75;97663.91;4973790;28;20026;-64
2021/08/06 00:53:43;;;;;;;4.07;1.27;;;;;;;18.49;75.66;97617.84;4979649;28;20923;-63
2021/08/06 00:56:09;;;;;;;5.43;1.30;;;;;;;18.75;75.57;97646.53;4978617;28;20109;-62
2021/08/06 00:58:34;;;;;;;5.07;1.30;;;;;;;18.29;75.42;97589.94;4990374;28;20027;-62
2021/08/06 01:01:00;;;;;;;5.93;1.40;;;;;;;18.83;75.21;97658.59;4974340;28;20030;-63
2021/08/06 01:03:27;;;;;;;3.53;1.15;;;;;;;18.42;75.06;97591.63;4976747;28;20524;-63
2021/08/06 01:06:08;;;;;;;4.90;1.40;;;;;;;18.73;75.28;97651.22;4980021;28;20447;-65
2021/08/06 01:08:42;;;;;;;3.88;1.20;;;;;;;18.82;75.28;97664.91;4976194;28;20038;-63
2021/08/06 01:11:08;;;;;;;4.63;1.52;;;;;;;18.81;75.00;97668.56;4982089;28;20080;-64
2021/08/06 01:13:54;;;;;;;5.38;1.33;;;;;;;18.74;75.23;97660.69;4993465;28;20113;-64
2021/08/06 01:16:20;;;;;;;3.58;1.25;;;;;;;18.75;75.27;97664.16;4975814;28;20821;-65
2021/08/06 01:19:11;;;;;;;6.65;1.40;;;;;;;18.44;75.59;97616.69;4979173;28;20035;-63
2021/08/06 01:21:45;;;;;;;4.35;1.45;;;;;;;18.74;75.20;97652.81;4966993;28;20108;-65
2021/08/06 01:24:12;;;;;;;4.47;1.30;;;;;;;18.64;75.75;97642.00;4978901;28;20527;-64
2021/08/06 01:26:38;;;;;;;4.25;1.40;;;;;;;18.67;75.47;97646.81;4989073;28;20073;-64
2021/08/06 01:29:04;;;;;;;5.00;1.25;;;;;;;18.69;74.95;97643.94;4987069;28;20027;-64
2021/08/06 01:31:30;;;;;;;3.53;1.20;;;;;;;18.63;75.01;97637.75;4975984;28;20517;-62
2021/08/06 01:33:55;;;;;;;3.88;1.40;;;;;;;18.68;74.45;97650.25;4972445;28;20038;-63
2021/08/06 01:36:21;;;;;;;6.03;1.23;;;;;;;18.66;74.77;97642.56;4977159;28;20117;-62
2021/08/06 01:38:46;;;;;;;6.30;1.20;;;;;;;18.69;74.35;97647.41;4976506;28;20041;-64
2021/08/06 01:41:24;;;;;;;5.65;1.40;;;;;;;18.50;74.40;97630.00;4978803;28;20018;-66
2021/08/06 01:44:08;;;;;;;3.90;1.30;;;;;;;18.63;74.02;97648.28;4975975;28;20038;-60
2021/08/06 01:46:37;;;;;;;6.50;1.38;;;;;;;18.61;74.48;97653.75;4994169;28;20092;-60
2021/08/06 01:49:38;;;;;;;3.17;1.17;;;;;;;18.65;74.58;97648.84;4978116;28;20038;-64
2021/08/06 01:52:08;;;;;;;3.65;1.20;;;;;;;18.59;74.78;97645.28;4979175;28;20116;-63
2021/08/06 01:54:34;;;;;;;3.67;1.40;;;;;;;18.44;74.72;97634.31;4992842;28;20121;-65
2021/08/06 01:57:02;;;;;;;3.60;1.33;;;;;;;18.40;75.10;97635.78;4993205;28;20192;-65
2021/08/06 01:59:28;;;;;;;4.35;1.17;;;;;;;18.49;75.21;97628.38;4976390;28;20588;-65
2021/08/06 02:01:53;;;;;;;3.67;1.45;;;;;;;18.49;76.01;97644.19;4976882;28;20092;-62
2021/08/06 02:04:19;;;;;;;4.53;1.30;;;;;;;18.36;75.98;97632.78;4981918;28;20690;-64
2021/08/06 02:06:44;;;;;;;4.10;1.35;;;;;;;18.38;76.13;97643.91;4980420;28;20474;-63
2021/08/06 02:09:15;;;;;;;3.60;1.27;;;;;;;18.18;75.62;97593.28;4979724;28;20038;-65
2021/08/06 02:11:40;;;;;;;5.80;1.40;;;;;;;18.49;75.30;97646.81;4971146;28;20027;-63
2021/08/06 02:14:06;;;;;;;5.45;1.30;;;;;;;18.47;75.06;97648.84;4983368;28;20092;-64
2021/08/06 02:16:32;;;;;;;3.55;1.20;;;;;;;18.29;75.36;97642.56;4984770;28;20512;-65
2021/08/06 02:18:58;;;;;;;3.50;1.20;;;;;;;18.33;75.17;97645.56;4969516;28;20045;-66
2021/08/06 02:21:30;;;;;;;3.50;1.30;;;;;;;18.37;75.20;97650.16;4977788;28;20026;-65
2021/08/06 02:23:59;;;;;;;5.25;1.40;;;;;;;18.32;75.26;97646.59;4995671;28;20038;-65
2021/08/06 02:26:25;;;;;;;5.53;1.45;;;;;;;18.24;75.81;97643.22;4978960;28;20022;-64
2021/08/06 02:28:50;;;;;;;5.70;1.30;;;;;;;18.28;75.84;97637.53;4977863;28;20665;-65
2021/08/06 02:31:18;;;;;;;4.65;1.30;;;;;;;18.23;75.80;97632.91;4995027;28;20035;-65
2021/08/06 02:33:43;;;;;;;4.40;1.30;;;;;;;18.24;75.94;97637.94;4992897;28;20034;-64
2021/08/06 02:36:09;;;;;;;5.20;1.30;;;;;;;18.07;76.11;97621.13;4982962;28;20022;-64
2021/08/06 02:38:34;;;;;;;4.25;1.30;;;;;;;18.16;76.29;97635.63;4984289;28;20126;-65
2021/08/06 02:41:00;;;;;;;3.80;1.30;;;;;;;18.09;76.47;97620.91;4979751;28;20393;-65
2021/08/06 02:43:26;;;;;;;3.85;1.30;;;;;;;18.12;75.95;97629.16;4977516;28;20626;-65
2021/08/06 02:45:51;;;;;;;2.95;1.10;;;;;;;18.13;76.16;97632.63;4980346;28;20093;-64
2021/08/06 02:48:17;;;;;;;5.05;1.45;;;;;;;18.08;76.05;97628.00;4996671;28;20034;-65
2021/08/06 02:50:43;;;;;;;4.40;1.35;;;;;;;18.06;75.24;97619.50;4994078;28;20022;-65
2021/08/06 02:53:09;;;;;;;3.75;1.10;;;;;;;17.78;75.88;97576.06;4977233;28;20081;-63
2021/08/06 02:55:34;;;;;;;5.28;1.48;;;;;;;17.83;75.80;97591.16;4988671;28;20030;-65
2021/08/06 02:57:59;;;;;;;3.90;1.08;;;;;;;17.99;75.56;97614.31;4981029;28;20121;-65
2021/08/06 03:00:25;;;;;;;4.38;1.35;;;;;;;17.66;75.43;97570.69;4978498;28;20034;-65
2021/08/06 03:02:50;;;;;;;4.63;1.30;;;;;;;17.75;75.87;97581.72;4976118;28;20473;-64
2021/08/06 03:05:16;;;;;;;5.82;1.33;;;;;;;18.05;75.99;97623.97;4986000;28;20105;-64
2021/08/06 03:07:48;;;;;;;4.28;1.30;;;;;;;18.01;75.73;97622.78;4979318;28;20790;-64
2021/08/06 03:10:13;;;;;;;4.43;1.35;;;;;;;18.09;75.41;97623.53;4981573;28;20023;-64
2021/08/06 03:12:39;;;;;;;6.78;1.20;;;;;;;18.05;75.88;97620.53;4980844;28;20038;-65
2021/08/06 03:15:05;;;;;;;4.68;1.20;;;;;;;17.76;75.44;97588.59;4982492;28;20513;-66
2021/08/06 03:17:30;;;;;;;4.05;1.10;;;;;;;18.02;75.68;97621.78;4984396;28;20034;-63
2021/08/06 03:19:56;;;;;;;4.53;1.48;;;;;;;17.94;75.79;97616.78;4977107;28;20038;-64
2021/08/06 03:22:21;;;;;;;3.95;1.33;;;;;;;17.98;75.58;97623.22;4982122;28;20114;-61
2021/08/06 03:24:46;;;;;;;4.05;1.23;;;;;;;17.98;75.39;97619.78;4978439;28;20034;-65
2021/08/06 03:27:12;;;;;;;3.97;1.10;;;;;;;17.97;75.49;97618.19;4977341;28;20030;-64
2021/08/06 03:29:37;;;;;;;3.30;1.20;;;;;;;17.43;75.54;97539.75;4995875;28;20061;-64
2021/08/06 03:32:03;;;;;;;5.18;1.38;;;;;;;18.02;75.43;97629.66;4994145;28;20030;-65
2021/08/06 03:34:28;;;;;;;3.35;1.20;;;;;;;17.97;75.80;97626.88;4975217;28;20092;-64
2021/08/06 03:36:54;;;;;;;3.75;1.30;;;;;;;17.99;75.62;97629.28;4983952;28;20447;-65
2021/08/06 03:39:19;;;;;;;3.85;1.25;;;;;;;17.70;75.48;97588.66;4980175;28;20026;-64
2021/08/06 03:41:44;;;;;;;5.00;1.20;;;;;;;18.03;75.57;97640.97;4979592;28;20968;-64
2021/08/06 03:44:10;;;;;;;5.38;1.40;;;;;;;18.02;75.16;97642.81;4979801;28;20112;-64
2021/08/06 03:46:35;;;;;;;4.38;1.30;;;;;;;17.77;75.21;97621.75;4980508;28;20109;-65
2021/08/06 03:49:01;;;;;;;3.60;1.20;;;;;;;17.92;75.60;97652.22;4977759;28;20072;-65
2021/08/06 03:51:26;;;;;;;5.13;1.38;;;;;;;17.90;75.70;97672.66;4974927;28;20101;-63
2021/08/06 03:53:51;;;;;;;4.75;1.17;;;;;;;17.88;75.84;97669.44;4964143;28;20027;-64
2021/08/06 03:56:17;;;;;;;5.93;1.30;;;;;;;17.88;76.12;97669.44;4977869;28;20073;-64
2021/08/06 03:58:42;;;;;;;3.05;0.90;;;;;;;17.84;76.02;97674.28;4981522;28;20037;-62
2021/08/06 04:01:08;;;;;;;4.45;1.30;;;;;;;17.80;76.43;97675.75;4982627;28;20030;-64
2021/08/06 04:03:33;;;;;;;4.78;1.25;;;;;;;17.45;76.47;97627.06;4962981;28;20042;-64
2021/08/06 04:05:58;;;;;;;3.50;1.27;;;;;;;17.52;76.32;97620.94;4973858;28;20026;-62
2021/08/06 04:08:24;;;;;;;4.00;1.10;;;;;;;17.77;76.29;97676.97;4960464;28;20247;-65
2021/08/06 04:10:50;;;;;;;4.10;1.17;;;;;;;17.81;76.26;97677.34;4978442;28;20035;-65
2021/08/06 04:13:15;;;;;;;3.47;1.30;;;;;;;17.84;75.98;97677.72;4973700;28;20811;-65
2021/08/06 04:15:42;;;;;;;4.63;1.20;;;;;;;17.90;75.95;97675.28;4974362;28;20739;-64
2021/08/06 04:18:07;;;;;;;4.43;1.20;;;;;;;17.94;75.84;97686.97;4976484;28;20512;-65
2021/08/06 04:20:33;;;;;;;3.45;1.23;;;;;;;17.78;75.82;97662.81;4983219;28;20026;-65
2021/08/06 04:22:58;;;;;;;4.50;1.38;;;;;;;17.90;76.12;97689.22;4971332;28;20106;-64
2021/08/06 04:25:24;;;;;;;4.60;1.70;;;;;;;17.73;76.92;97683.66;4978113;28;20030;-66
2021/08/06 04:27:49;;;;;;;4.22;1.40;;;;;;;17.83;76.13;97697.16;4972834;28;20121;-66
2021/08/06 04:30:15;;;;;;;4.47;1.40;;;;;;;17.67;75.99;97684.53;4991633;28;20061;-64
2021/08/06 04:32:41;;;;;;;4.90;1.20;;;;;;;17.75;76.07;97702.66;4983543;28;20657;-66
2021/08/06 04:35:07;;;;;;;4.15;1.30;;;;;;;17.80;75.63;97708.09;4977163;28;20033;-65
2021/08/06 04:37:32;;;;;;;3.25;1.00;;;;;;;17.77;75.43;97705.88;4983360;28;20026;-65
2021/08/06 04:39:57;;;;;;;4.25;1.20;;;;;;;17.64;75.57;97714.66;4971036;28;20030;-64
2021/08/06 04:42:23;;;;;;;5.55;1.40;;;;;;;17.59;75.92;97724.19;4980938;28;20034;-66
2021/08/06 04:44:48;;;;;;;2.92;1.08;;;;;;;17.61;75.98;97706.38;4974101;28;20052;-65
2021/08/06 04:47:14;;;;;;;5.13;1.30;;;;;;;17.65;76.04;97710.19;4991399;28;20026;-62
2021/08/06 04:49:40;;;;;;;4.53;1.33;;;;;;;17.62;76.00;97708.00;4980091;28;20031;-65
2021/08/06 04:52:05;;;;;;;5.53;1.40;;;;;;;17.59;76.33;97706.59;4976309;28;20027;-61
2021/08/06 04:54:31;;;;;;;5.55;1.30;;;;;;;17.61;77.17;97701.94;4982229;28;20026;-66
2021/08/06 04:56:56;;;;;;;4.85;1.50;;;;;;;17.73;76.26;97709.97;4980159;28;20092;-63
2021/08/06 04:59:22;;;;;;;6.97;1.40;;;;;;;17.77;77.87;97720.84;4981176;28;20445;-67
2021/08/06 05:01:47;;;;;;;3.95;1.40;;;;;;;17.79;77.35;97717.00;4964903;28;20077;-66
2021/08/06 05:04:13;;;;;;;4.18;1.20;;;;;;;17.78;77.62;97712.75;4980050;28;20068;-64
2021/08/06 05:06:38;;;;;;;7.25;1.50;;;;;;;17.68;77.27;97722.94;4989680;28;20034;-67
2021/08/06 05:09:03;;;;;;;4.55;1.30;;;;;;;17.78;76.76;97715.38;4959554;28;20061;-64
2021/08/06 05:11:29;;;;;;;4.97;1.30;;;;;;;17.56;76.82;97664.16;4995373;28;20053;-63
2021/08/06 05:13:54;;;;;;;3.42;1.15;;;;;;;17.81;76.55;97708.88;4980017;28;20489;-65
2021/08/06 05:16:20;;;;;;;6.10;1.73;;;;;;;17.96;76.44;97724.38;4976917;28;20125;-65
2021/08/06 05:18:45;;;;;;;3.75;1.20;;;;;;;17.93;76.61;97723.00;4978246;28;20520;-64
2021/08/06 05:21:11;;;;;;;6.13;2.22;;;;;;;17.86;75.82;97715.16;4960665;28;20023;-66
2021/08/06 05:23:36;;;;;;;4.93;1.35;;;;;;;17.86;75.93;97715.16;4988310;28;20457;-66
2021/08/06 05:26:02;;;;;;;4.18;1.25;;;;;;;17.82;76.57;97723.66;4963530;28;20088;-66
2021/08/06 05:28:28;;;;;;;5.03;1.40;;;;;;;17.78;76.73;97728.53;4972273;28;20030;-61
2021/08/06 05:30:53;;;;;;;4.38;1.50;;;;;;;17.83;77.07;97723.44;4966666;28;20026;-64
2021/08/06 05:33:19;;;;;;;3.33;1.30;;;;;;;17.83;76.55;97717.38;4959748;28;20023;-65
2021/08/06 05:35:44;;;;;;;4.15;1.30;;;;;;;17.73;76.78;97720.47;4973308;28;20030;-62
2021/08/06 05:38:10;;;;;;;4.60;1.45;;;;;;;17.69;77.33;97729.81;4976875;28;20116;-64
2021/08/06 05:40:35;;;;;;;4.63;1.40;;;;;;;17.71;77.39;97738.28;4977460;28;20080;-66
2021/08/06 05:43:01;;;;;;;5.15;1.60;;;;;;;17.52;76.72;97687.44;4974275;28;20132;-65
2021/08/06 05:45:26;;;;;;;6.85;1.30;;;;;;;17.88;76.73;97743.06;4969468;28;20490;-64
2021/08/06 05:47:54;;;;;;;7.18;1.38;;;;;;;17.88;76.60;97746.50;4970898;28;20481;-62
2021/08/06 05:50:22;;;;;;;4.65;1.30;;;;;;;17.86;76.07;97741.44;4974565;28;20476;-66
2021/08/06 05:52:48;;;;;;;3.50;1.15;;;;;;;17.89;76.84;97750.75;4971810;28;20374;-67
2021/08/06 05:55:14;;;;;;;4.60;1.27;;;;;;;17.88;76.24;97750.97;4978317;28;20026;-63
2021/08/06 05:57:39;;;;;;;6.97;1.20;;;;;;;17.81;76.17;97754.38;4982267;28;20038;-65
2021/08/06 06:00:07;;;;;;;4.50;1.17;;;;;;;17.79;76.60;97755.63;4985447;28;20033;-62
2021/08/06 06:02:32;;;;;;;4.68;1.10;;;;;;;17.85;76.89;97758.25;4979594;28;20045;-66
2021/08/06 06:04:57;;;;;;;4.00;1.23;;;;;;;17.86;76.94;97762.47;4980598;28;20084;-66
2021/08/06 06:07:23;;;;;;;3.25;1.13;;;;;;;17.92;76.62;97763.44;4986695;28;20081;-62
2021/08/06 06:09:48;;;;;;;4.53;1.38;;;;;;;17.64;76.94;97727.00;4982926;28;20593;-64
2021/08/06 06:12:14;;;;;;;6.25;1.35;;;;;;;17.91;76.86;97771.56;4980962;28;20038;-66
2021/08/06 06:14:39;;;;;;;5.13;1.50;;;;;;;17.58;77.46;97726.03;4978973;28;20442;-64
2021/08/06 06:17:05;;;;;;;5.40;1.35;;;;;;;17.77;77.60;97771.59;4981711;28;20038;-61
2021/08/06 06:19:30;;;;;;;4.28;1.50;;;;;;;17.74;77.88;97774.69;4973929;28;20026;-65
2021/08/06 06:21:56;;;;;;;3.88;1.33;;;;;;;17.71;77.90;97766.41;5000523;28;20030;-67
2021/08/06 06:24:21;;;;;;;4.78;1.40;;;;;;;17.81;77.63;97769.38;4979217;28;20096;-64
2021/08/06 06:26:46;;;;;;;3.80;1.20;;;;;;;17.83;77.09;97773.41;4976108;28;20035;-66
2021/08/06 06:29:12;;;;;;;3.65;1.33;;;;;;;17.64;77.46;97734.88;4980461;28;20018;-59
2021/08/06 06:31:37;;;;;;;5.57;1.40;;;;;;;17.88;77.94;97772.78;4983877;28;20573;-67
2021/08/06 06:34:03;;;;;;;5.75;1.40;;;;;;;17.83;78.51;97768.16;4981137;28;20080;-66
2021/08/06 06:36:28;;;;;;;5.63;1.40;;;;;;;17.57;77.71;97718.34;4973133;28;20156;-63
2021/08/06 06:38:54;;;;;;;5.10;1.20;;;;;;;17.84;77.63;97775.00;4975566;28;20031;-65
2021/08/06 06:41:19;;;;;;;5.35;1.67;;;;;;;17.79;77.83;97771.41;4958209;28;20118;-65
2021/08/06 06:43:44;;;;;;;6.00;1.60;;;;;;;17.67;78.22;97768.66;4972828;28;20030;-63
2021/08/06 06:46:10;;;;;;;4.45;1.55;;;;;;;17.61;78.86;97780.00;4981895;28;20818;-66
2021/08/06 06:48:36;;;;;;;5.43;1.55;;;;;;;17.58;79.06;97777.81;4979585;28;20049;-66
2021/08/06 06:51:01;;;;;;;6.05;1.52;;;;;;;17.56;78.30;97779.81;4994897;28;20034;-65
2021/08/06 06:53:26;;;;;;;6.32;1.45;;;;;;;17.69;76.56;97790.28;4965371;28;20037;-65
2021/08/06 06:55:52;;;;;;;6.93;1.40;;;;;;;17.64;77.08;97793.53;4975181;28;20078;-66
2021/08/06 06:58:18;;;;;;;5.47;1.45;;;;;;;17.64;76.98;97795.34;4980329;28;20480;-63
2021/08/06 07:00:44;;;;;;;5.32;1.20;;;;;;;17.38;76.73;97748.97;4978685;28;20038;-62
2021/08/06 07:03:09;;;;;;;5.82;1.50;;;;;;;17.62;76.30;97778.97;4985031;28;20030;-66
2021/08/06 07:05:35;;;;;;;7.05;1.70;;;;;;;17.75;76.15;97786.78;4975706;28;20109;-65
2021/08/06 07:08:02;;;;;;;5.85;1.70;;;;;;;17.58;76.57;97744.44;4976759;28;20030;-66
2021/08/06 07:10:27;;;;;;;2.80;1.00;;;;;;;17.88;77.34;97775.41;4978183;28;20034;-62
2021/08/06 07:12:54;;;;;;;5.70;1.50;;;;;;;18.00;77.38;97776.34;4991759;28;20397;-66
2021/08/06 07:15:20;;;;;;;3.95;1.35;;;;;;;18.01;76.81;97782.41;4979135;28;20141;-63
2021/08/06 07:17:45;;;;;;;4.78;1.30;;;;;;;17.77;77.58;97744.53;4983990;28;20116;-62
2021/08/06 07:20:13;;;;;;;4.20;1.40;;;;;;;17.83;77.56;97757.63;4981640;28;20460;-66
2021/08/06 07:22:38;;;;;;;3.72;1.40;;;;;;;18.07;77.56;97784.22;4981472;28;20034;-65
2021/08/06 07:25:05;;;;;;;4.68;1.60;;;;;;;17.99;76.27;97792.34;4977425;28;20047;-65
2021/08/06 07:27:30;;;;;;;5.45;1.58;;;;;;;18.01;77.16;97785.06;4969138;28;20041;-64
2021/08/06 07:29:56;;;;;;;4.78;1.50;;;;;;;18.08;77.36;97792.91;4979510;28;20038;-65
2021/08/06 07:32:21;;;;;;;6.40;1.35;;;;;;;17.75;76.79;97749.97;4977730;28;20033;-65
2021/08/06 07:34:46;;;;;;;4.85;1.40;;;;;;;17.93;73.70;97788.75;4979273;28;20070;-64
2021/08/06 07:37:12;;;;;;;5.57;1.45;;;;;;;17.93;75.39;97796.63;4974853;28;20268;-65
2021/08/06 07:39:38;;;;;;;4.78;1.55;;;;;;;17.75;74.16;97751.81;4965220;28;20634;-65
2021/08/06 07:42:04;;;;;;;4.60;1.50;;;;;;;17.99;75.41;97789.72;4978314;28;20192;-63
2021/08/06 07:44:30;;;;;;;5.97;1.52;;;;;;;17.80;75.44;97744.09;4974099;28;20077;-63
2021/08/06 07:46:55;;;;;;;4.13;1.33;;;;;;;18.03;75.49;97798.78;4980376;28;20121;-64
2021/08/06 07:49:20;;;;;;;4.38;1.40;;;;;;;18.07;75.00;97797.38;4970460;28;20035;-64
2021/08/06 07:51:46;;;;;;;4.57;1.40;;;;;;;17.82;75.62;97747.31;4981994;28;20488;-64
2021/08/06 07:54:11;;;;;;;5.28;1.30;;;;;;;18.04;74.92;97792.53;4980397;28;20069;-63
2021/08/06 07:56:37;;;;;;;3.53;1.20;;;;;;;17.97;73.11;97789.94;4977810;28;20037;-64
2021/08/06 07:59:02;;;;;;;3.92;1.50;;;;;;;17.98;74.44;97781.03;4990245;28;20038;-64
2021/08/06 08:01:28;;;;;;;4.03;1.33;;;;;;;18.09;73.84;97782.19;4978130;28;20089;-63
2021/08/06 08:03:53;;;;;;;5.43;1.48;;;;;;;18.19;74.75;97789.59;4981424;28;20030;-64
2021/08/06 08:06:18;;;;;;;4.47;1.33;;;;;;;18.19;74.69;97768.53;4975089;28;20026;-64
2021/08/06 08:08:44;;;;;;;4.57;1.30;;;;;;;18.03;73.97;97741.75;4976645;28;20851;-64
2021/08/06 08:11:10;;;;;;;3.90;1.30;;;;;;;18.29;74.50;97782.03;4973959;28;20758;-64
2021/08/06 08:13:36;;;;;;;5.88;1.42;;;;;;;18.52;71.57;97728.78;4973784;28;20035;-61
2021/08/06 08:16:02;;;;;;;3.40;1.23;;;;;;;19.69;66.22;97774.50;4973222;28;20659;-63
2021/08/06 08:18:28;;;;;;;3.53;1.20;;;;;;;20.26;63.79;97777.56;4976905;28;20181;-65
2021/08/06 08:20:54;;;;;;;4.10;1.50;;;;;;;20.62;62.19;97754.63;4978509;28;20074;-64
2021/08/06 08:23:20;;;;;;;5.03;1.30;;;;;;;21.31;59.98;97769.81;4978074;28;20515;-68
2021/08/06 08:25:49;;;;;;;5.13;1.40;;;;;;;21.64;58.59;97771.00;4975618;28;20109;-67
2021/08/06 08:28:16;;;;;;;7.45;1.30;;;;;;;22.12;58.00;97763.59;4972929;28;20031;-63
2021/08/06 08:30:41;;;;;;;5.85;1.30;;;;;;;22.48;55.52;97766.84;4983616;28;20439;-63
2021/08/06 08:33:07;;;;;;;4.78;1.20;;;;;;;22.97;53.45;97716.66;4976985;28;20031;-62
2021/08/06 08:35:33;;;;;;;3.75;1.13;;;;;;;23.34;53.85;97719.47;4982552;28;20022;-64
2021/08/06 08:37:58;;;;;;;4.55;1.17;;;;;;;23.42;51.60;97753.53;4977169;28;20042;-64
2021/08/06 08:40:24;;;;;;;2.90;1.00;;;;;;;23.37;52.59;97756.13;4981834;28;20104;-64
2021/08/06 08:42:49;;;;;;;4.65;1.35;;;;;;;23.89;51.53;97754.00;4975099;28;20123;-64
2021/08/06 08:45:15;;;;;;;4.13;1.50;;;;;;;24.20;51.10;97760.38;4978564;28;20080;-61
2021/08/06 08:47:44;;;;;;;4.25;1.27;;;;;;;24.62;51.49;97762.28;4978579;28;20042;-65
2021/08/06 08:50:10;;;;;;;6.87;1.10;;;;;;;24.77;50.44;97764.25;4970144;28;20554;-63
2021/08/06 08:52:35;;;;;;;4.15;1.10;;;;;;;24.87;49.33;97731.59;4980301;28;20041;-62
2021/08/06 08:55:01;;;;;;;3.25;1.20;;;;;;;25.10;49.63;97771.06;4973553;28;20109;-65
2021/08/06 08:57:27;;;;;;;3.90;1.20;;;;;;;25.22;47.66;97767.38;4978341;28;20456;-63
2021/08/06 08:59:52;;;;;;;3.70;1.13;;;;;;;25.71;46.00;97769.69;4974764;28;20171;-65
2021/08/06 09:02:18;;;;;;;4.60;1.10;;;;;;;25.90;45.60;97769.97;4974397;28;20034;-63
2021/08/06 09:04:45;;;;;;;3.30;1.10;;;;;;;25.98;44.96;97766.03;4977177;28;20027;-62
2021/08/06 09:07:30;;;;;;;3.42;1.10;;;;;;;26.07;44.03;97767.09;4970261;28;20102;-64
2021/08/06 09:10:11;;;;;;;4.22;1.30;;;;;;;25.71;45.94;97770.47;4969102;28;20331;-65
2021/08/06 09:12:50;;;;;;;4.07;1.20;;;;;;;26.19;45.20;97772.16;4973474;28;20027;-65
2021/08/06 09:15:18;;;;;;;4.07;1.00;;;;;;;26.40;43.69;97765.75;4979477;28;20392;-64
2021/08/06 09:17:43;;;;;;;3.22;1.10;;;;;;;26.36;44.40;97777.19;4979055;28;20041;-64
2021/08/06 09:20:09;;;;;;;3.45;1.20;;;;;;;26.07;43.97;97773.22;4973845;28;20528;-62
2021/08/06 09:22:38;;;;;;;3.53;1.00;;;;;;;26.65;42.37;97766.78;4978518;28;20026;-63
2021/08/06 09:25:17;;;;;;;4.97;1.30;;;;;;;26.69;42.84;97769.72;4975404;28;20080;-65
2021/08/06 09:27:50;;;;;;;4.07;1.20;;;;;;;26.96;43.14;97756.88;4968919;28;20030;-60
2021/08/06 09:30:36;;;;;;;5.65;1.20;;;;;;;26.75;45.61;97768.66;4964972;28;20056;-65
2021/08/06 09:33:03;;;;;;;3.08;1.20;;;;;;;26.16;46.08;97765.50;4972773;28;20145;-66
2021/08/06 09:35:32;;;;;;;5.40;1.40;;;;;;;25.10;48.06;97738.34;4967446;28;20566;-66
2021/08/06 09:37:58;;;;;;;3.42;1.45;;;;;;;24.52;50.23;97735.63;4977547;28;20038;-65
2021/08/06 09:40:30;;;;;;;5.10;1.65;;;;;;;24.30;51.26;97723.28;4977441;28;20458;-65
2021/08/06 09:42:59;;;;;;;6.43;2.00;;;;;;;24.20;52.96;97755.06;4975566;28;20350;-66
2021/08/06 09:45:35;;;;;;;;;;;;;;;24.11;53.58;97751.28;4973342;28;20027;-66
2021/08/06 09:48:02;;;;;;;4.63;2.00;;;;;;;23.88;54.58;97747.09;4980611;28;19953;-66
2021/08/06 09:50:43;;;;;;;6.22;1.95;;;;;;;23.65;55.83;97733.06;4978678;28;20042;-64
2021/08/06 09:53:09;;;;;;;7.22;2.20;;;;;;;23.78;55.87;97748.59;4975703;28;20052;-64
2021/08/06 09:55:49;;;;;;;6.55;2.42;;;;;;;23.75;56.02;97749.06;4981781;28;20485;-64
2021/08/06 09:58:20;;;;;;;7.95;2.28;;;;;;;23.76;57.32;97750.66;4973465;28;20037;-61
2021/08/06 10:00:48;;;;;;;6.80;2.20;;;;;;;23.83;58.12;97747.84;4974448;28;20461;-65
2021/08/06 10:03:33;;;;;;;8.13;2.08;;;;;;;23.75;57.56;97737.66;4975919;28;20034;-64
2021/08/06 10:06:08;;;;;;;8.60;2.50;;;;;;;23.71;58.49;97736.53;4971376;28;20030;-62
2021/08/06 10:08:34;;;;;;;7.15;2.33;;;;;;;23.75;58.98;97745.63;4979571;28;20026;-65
2021/08/06 10:11:00;;;;;;;6.00;2.30;;;;;;;23.83;58.46;97749.72;4977755;28;20048;-66
2021/08/06 10:13:26;;;;;;;7.13;2.35;;;;;;;23.81;58.30;97752.59;4976401;28;20097;-60
2021/08/06 10:15:51;;;;;;;6.18;2.63;;;;;;;23.75;58.44;97735.81;4975496;28;20503;-65
2021/08/06 10:18:17;;;;;;;7.00;2.55;;;;;;;23.66;59.29;97717.94;4973108;28;20038;-65
2021/08/06 10:20:42;;;;;;;9.50;2.83;;;;;;;23.83;59.54;97747.84;4975798;28;20027;-62
2021/08/06 10:23:07;;;;;;;7.05;2.40;;;;;;;23.61;59.65;97706.22;4973525;28;20061;-67
2021/08/06 10:25:33;;;;;;;6.82;2.70;;;;;;;23.85;59.14;97744.94;4971308;28;20027;-65
2021/08/06 10:27:59;;;;;;;8.32;2.70;;;;;;;23.93;58.17;97744.47;4969391;28;20034;-64
2021/08/06 10:30:24;;;;;;;7.88;2.60;;;;;;;23.86;57.73;97750.00;4973795;28;20042;-67
2021/08/06 10:33:20;;;;;;;6.85;2.95;;;;;;;23.83;58.95;97741.75;4974844;28;20581;-65
2021/08/06 10:36:01;;;;;;;8.45;2.50;;;;;;;23.83;59.31;97739.88;4960150;28;20061;-62
2021/08/06 10:38:35;;;;;;;7.00;2.97;;;;;;;23.89;58.75;97741.53;4979954;28;20116;-66
2021/08/06 10:41:02;;;;;;;8.82;2.88;;;;;;;23.73;57.80;97711.38;4975927;28;20026;-64
2021/08/06 10:43:44;;;;;;;8.10;2.97;;;;;;;23.94;59.10;97735.47;4974317;28;20041;-65
2021/08/06 10:46:11;;;;;;;8.07;2.80;;;;;;;23.84;59.46;97688.41;4973890;28;20034;-64
2021/08/06 10:48:38;;;;;;;8.60;3.05;;;;;;;24.18;60.89;97720.00;4973104;28;20473;-65
2021/08/06 10:51:15;;;;;;;10.02;3.33;;;;;;;24.17;59.53;97731.69;4964795;28;20023;-64
2021/08/06 10:53:59;;;;;;;11.75;3.40;;;;;;;24.21;60.38;97721.34;4972951;28;20062;-64
2021/08/06 10:56:25;;;;;;;9.43;3.30;;;;;;;24.20;59.64;97719.75;4973280;28;20024;-61
2021/08/06 10:58:51;;;;;;;8.60;3.10;;;;;;;24.12;59.88;97719.16;4978467;28;20034;-63
2021/08/06 11:01:37;;;;;;;8.43;3.88;;;;;;;24.21;59.80;97718.69;4980107;28;20041;-65
2021/08/06 11:04:10;;;;;;;9.25;2.80;;;;;;;24.27;60.42;97726.44;4977506;28;20061;-65
2021/08/06 11:06:52;;;;;;;8.52;3.15;;;;;;;24.31;59.63;97719.56;4968509;28;20037;-64
2021/08/06 11:11:55;;;;;;;10.27;3.28;;;;;;;24.44;59.31;97717.50;4979922;28;20118;-64
2021/08/06 11:14:32;;;;;;;8.63;3.28;;;;;;;24.52;58.42;97719.69;4969198;28;20132;-63
2021/08/06 11:17:11;;;;;;;9.70;3.30;;;;;;;24.52;58.78;97714.38;4978022;28;20180;-64
2021/08/06 11:19:44;;;;;;;8.00;3.20;;;;;;;24.46;57.71;97716.22;4974538;28;20037;-65
2021/08/06 11:22:21;;;;;;;8.82;3.30;;;;;;;24.51;58.97;97704.78;4961589;28;20033;-64
2021/08/06 11:24:50;;;;;;;11.82;3.50;;;;;;;24.60;58.52;97716.56;4976087;28;21052;-63
2021/08/06 11:27:16;;;;;;;10.52;3.88;;;;;;;24.54;57.63;97718.41;4965632;28;20025;-65
2021/08/06 11:29:43;;;;;;;6.40;3.05;;;;;;;24.43;57.62;97686.69;4974094;28;20054;-62
2021/08/06 11:32:12;;;;;;;12.77;3.53;;;;;;;24.64;57.56;97728.31;4978957;28;20934;-63
2021/08/06 11:34:53;;;;;;;9.25;3.38;;;;;;;24.58;56.83;97724.00;4963681;28;20061;-64
2021/08/06 11:37:21;;;;;;;8.40;3.50;;;;;;;24.60;57.02;97727.19;4968877;28;20050;-63